createdAt,value
2022-10-24T17:25:06.067Z,19.5
2022-10-24T17:30:38.209Z,19.4
2022-10-24T17:36:14.395Z,19.3
2022-10-24T17:41:57.697Z,19.1
2022-10-24T17:47:33.035Z,19
2022-10-24T17:53:20.474Z,18.9
2022-10-24T17:59:07.189Z,18.8
2022-10-24T18:04:57.898Z,18.6
2022-10-24T18:10:35.346Z,18.6
2022-10-24T18:16:22.172Z,18.4
2022-10-24T18:22:16.228Z,18.3
2022-10-24T18:27:56.304Z,18.3
2022-10-24T18:33:31.222Z,18.1
2022-10-24T18:39:11.039Z,18
2022-10-24T18:44:50.866Z,17.9
2022-10-24T18:50:26.906Z,17.5
2022-10-24T18:56:04.028Z,17.4
2022-10-24T19:03:03.524Z,17.4
2022-10-24T19:08:46.847Z,17.3
2022-10-24T19:14:30.581Z,17.4
2022-10-24T19:20:16.828Z,17.2
2022-10-24T19:26:08.173Z,17.2
2022-10-24T19:31:43.353Z,17
2022-10-24T19:37:18.275Z,16.8
2022-10-24T19:43:01.436Z,16.7
2022-10-24T19:48:42.589Z,16.6
2022-10-24T19:54:27.324Z,16.5
2022-10-24T20:00:05.767Z,16.4
2022-10-24T20:05:40.737Z,16.3
2022-10-24T20:11:19.906Z,16.2
2022-10-24T20:16:56.351Z,16.1
2022-10-24T20:22:48.716Z,16.1
2022-10-24T20:28:42.802Z,16.1
2022-10-24T20:34:18.038Z,16
2022-10-24T20:39:52.968Z,15.9
2022-10-24T20:45:27.903Z,15.8
2022-10-24T20:51:11.559Z,15.8
2022-10-24T20:56:48.411Z,15.8
2022-10-24T21:02:23.512Z,15.9
2022-10-24T21:08:01.037Z,15.6
2022-10-24T21:13:35.971Z,15.7
2022-10-24T21:19:11.816Z,16
2022-10-24T21:25:10.784Z,16.6
2022-10-24T21:30:51.744Z,16.7
2022-10-24T21:36:38.789Z,16.8
2022-10-24T21:42:13.651Z,16.9
2022-10-24T21:47:49.760Z,17
2022-10-24T21:53:28.561Z,17.1
2022-10-24T21:59:06.715Z,17.1
2022-10-24T22:05:21.824Z,17.2
2022-10-24T22:10:56.671Z,17.3
2022-10-24T22:16:36.851Z,17.3
2022-10-24T22:22:19.552Z,17.3
2022-10-24T22:27:54.584Z,17.2
2022-10-24T22:33:34.747Z,17.2
2022-10-24T22:39:16.463Z,17.2
2022-10-24T22:44:57.089Z,17.2
2022-10-24T22:50:44.450Z,17.1
2022-10-24T22:56:29.351Z,17.1
2022-10-24T23:02:04.435Z,17.1
2022-10-24T23:07:53.928Z,17
2022-10-24T23:13:29.152Z,17
2022-10-24T23:19:03.984Z,16.9
2022-10-24T23:25:04.587Z,17
2022-10-24T23:31:00.712Z,17
2022-10-24T23:36:46.042Z,17
2022-10-24T23:42:26.119Z,17
2022-10-24T23:48:07.909Z,16.9
2022-10-24T23:53:50.662Z,16.8
2022-10-24T23:59:25.772Z,16.8
